Página principal
METAR-TAF:

METAR-TAF

Aeroportos :

Aeroporto Internacional do Kuwait

Kuwait, Kuwait

latitude: 29-13N, longitude: 047-59E, altura: 55 m

Observação actual do tempo

O boletim foi feito há 25 minutos, às 04:00 UTC
Vento 6 kt de este
Temperatura 15°C
Humidade 88%
Pressão 1018 hPa
Visibilidade: 4000 m
Poucas nuvensa uma altura de 4000 ft
Nuvens dispersasa uma altura de 8000 ft
neblina

METAR: OKBK 230400Z 09006KT 4000 BR FEW040 SCT080 15/13 Q1018 NOSIG

Hora: 07:25 (04:25 UTC)

Previsão

O boletim foi feito há 5 horas e 40 minutos, às 22:45 UTC
Previsão válida de 23 às 00 UTC a 24 às 06 UTC
Vento 10 kt de sudeste
Visibilidade: 7000 m
Temporariamente
de 23 às 00 UTC a 23 às 04 UTC
Visibilidade: 4000 m
neblina

TAF: OKBK 222245Z 2300/2406 14010KT 7000 NSC TEMPO 2300/2304 4000 BR

Observações e previsões do tempo de mais de 4000 aeroportos (mensagens METAR e TAF).

As estações disponíveis são os pontos amarelos e vermelhos sobre o mapa.

Mova o rato sobre o mapa para ver o nome da estação.

Depois clique no ponto para visualizar as observações e previsões meteorológicas.

Para alterar o mapa : clique nos botões verdes com uma cruz preta para aumentar o zoom; no botão verde com uma pitada de zoom; ou nas setas verdes para mapas adjacentes.


METAR-TAF: